Accueil
METAR-TAF:

METAR-TAF

Aéroports :

Plymouth Municipal Airport

Plymouth, Massachusetts, États-Unis

latitude: 41-54-31N, longitude: 070-43-41W, altitude: 45 m

Observation

Le bulletin a été fait il y a 37 minutes, à 04:52 UTC
Vent 4 kt de nord/nord-ouest
Température 18°C
Humidité 56%
Pression 1012 hPa
Visibilité: 16.1 km
Ciel clair

METAR: KPYM 200452Z AUTO 34004KT 10SM CLR 18/09 A2988 RMK AO2 SLP118 T01830094 402890144

Heure: 01:29 (05:29 UTC)


TAF: absent

Observations et prévisions météorologiques de plus de 4000 aéroports (messages METAR et TAF).

Les stations disponibles sont représentées par des disques jaunes et rouges sur la carte.

Passer la souris dessus pour voir le nom de la station.

Cliquer dessus pour voir les observations et prévisions météorologiques.

Pour changer de carte: cliquez sur les boutons verts avec une croix noire pour zoomer, sur le bouton vert avec un tiret pour effectuer un zoom arrière, ou sur les flèches vertes pour les cartes adjacentes.


METAR-TAF: